aviador You're here:

LKMT Decoded Metar

OSTRAVA in CZECH REPUBLIC
Report Time2017-09-25 16:30:00
UTC Time2017-09-25 16:54:50
Flight Rules vfr VFR
Wind060° at 03 kt
W.Decomp.*RWY 04: 2.9 kt HW 0.8 kt RCW
W.Rank060° ranks 16
Current wind is below 060° avg. (5.2)
Visibility9999 m
Phenomena:N/A
Clouds:N/A
Expected CloudBase > 800 ft AGL from Temp-Dew spread
CeilingNone
Temp14°C (ISA +1)
Dew Point12°C (88% RH)
AAT13.6°C
QNH1024 hPa
Density Alt738 ft
Elevation840 ft
Report Wrong Elevation
Raw Report
LKMT 251630Z 06003KT CAVOK 14/12 Q1024 NOSIG=

Extra information for LKMT:More info

Metar Taf Metar & Taf Last 4 Metars F.Rules Stats Wind Profile Meteogram Temp Stats Airport Information Weather charts Add Link Nearby VenuesMetar ALERT Operation Metar Decoded Social comments